Time;durP1;ratioP1;P1;durP2;ratioP2;P2;SDS_P1;SDS_P2;PMS_P1;PMS_P2;Temp;Humidity;BMP_temperature;BMP_pressure;BME280_temperature;BME280_humidity;BME280_pressure;Samples;Min_cycle;Max_cycle;Signal;HPM_P1;HPM_P2
2022/08/26 03:47:50;;;;;;;;;;;;;;;;;;;;;
2022/08/26 03:50:35;;;;;;;;;;;;;;;14.85;100.00;99290.00;6151745;23;20396;-92
2022/08/26 03:53:12;;;;;;;;;;;;;;;14.68;100.00;99297.34;6254633;22;19948;-89
2022/08/26 03:55:45;;;;;;;;;;;;;;;14.73;100.00;99293.50;6254533;22;20250;-89
2022/08/26 03:58:23;;;;;;;;;;;;;;;;;;;;;
2022/08/26 04:03:56;;;;;;;;;;;;;;;14.71;100.00;99297.16;6182409;23;19916;-92
2022/08/26 04:09:36;;;;;;;;;;;;;;;14.83;100.00;99298.13;6133461;23;19913;-93
2022/08/26 04:12:30;;;;;;;;;;;;;;;14.85;100.00;99295.34;6151096;23;19921;-91
2022/08/26 04:14:54;;;;;;;;;;;;;;;14.76;100.00;99295.97;6152961;23;19921;-95
2022/08/26 07:55:58;;;;;;;;;;;;;;;;;;;;;
2022/08/26 08:20:59;;;;;;;;;;;;;;;14.55;100.00;99379.09;5883894;24;20334;-89
2022/08/26 08:26:36;;;;;;;;;;;;;;;14.41;100.00;99368.44;5848240;24;19927;-92
2022/08/26 09:17:12;;;;;;;;;;;;;;;;;;;;;
2022/08/26 09:19:49;;;;;;;;;;;;;;;14.75;100.00;99384.94;6131388;23;19951;-88
2022/08/26 09:35:30;;;;;;;;;;;;;;;14.61;100.00;99389.34;5979325;24;19911;-95
2022/08/26 10:03:31;;;;;;;;;;;;;;;14.81;100.00;99374.72;6071703;23;19969;-92
2022/08/26 10:06:11;;;;;;;;;;;;;;;14.79;100.00;99381.09;6072527;23;19917;-91
2022/08/26 10:51:03;;;;;;;;;;;;;;;;;;;;;
2022/08/26 11:06:17;;;;;;;;;;;;;;;14.61;100.00;99356.53;5973172;23;20478;-91
2022/08/26 11:19:41;;;;;;;;;;;;;;;;;;;;;
2022/08/26 11:59:42;;;;;;;;;;;;;;;14.62;100.00;99359.09;5792666;24;20326;-92
2022/08/26 13:25:45;;;;;;;;;;;;;;;14.68;100.00;99334.69;5863155;24;19923;-90
2022/08/26 13:53:07;;;;;;;;;;;;;;;14.87;100.00;99330.75;5850691;24;19965;-95
2022/08/26 14:08:53;;;;;;;;;;;;;;;14.83;100.00;99324.78;5862027;24;20065;-96
2022/08/26 14:11:28;;;;;;;;;;;;;;;14.83;100.00;99331.94;5833496;24;19917;-92
2022/08/26 15:35:30;;;;;;;;;;;;;;;14.32;100.00;99325.47;5899713;24;19919;-93
2022/08/26 15:44:46;;;;;;;;;;;;;;;;;;;;;
2022/08/26 16:09:37;;;;;;;;;;;;;;;14.76;100.00;99336.84;5766122;24;19932;-90
2022/08/26 16:12:03;;;;;;;;;;;;;;;14.94;100.00;99337.41;5873867;24;19979;-90
2022/08/26 16:14:28;;;;;;;;;;;;;;;14.52;100.00;99339.31;6142612;23;19915;-88
2022/08/26 16:16:54;;;;;;;;;;;;;;;14.20;100.00;99334.28;6243809;23;19922;-89
2022/08/26 16:19:20;;;;;;;;;;;;;;;14.14;100.00;99342.66;6242766;23;19912;-89
2022/08/26 16:21:45;;;;;;;;;;;;;;;14.23;100.00;99349.19;6243295;23;20391;-88
2022/08/26 16:24:11;;;;;;;;;;;;;;;13.98;100.00;99361.44;6243688;23;19919;-89
2022/08/26 16:26:46;;;;;;;;;;;;;;;13.80;100.00;99366.09;6242777;23;19922;-90
2022/08/26 16:29:13;;;;;;;;;;;;;;;13.92;100.00;99368.00;6243654;23;19995;-89
2022/08/26 16:31:41;;;;;;;;;;;;;;;13.86;100.00;99365.72;6243669;23;19911;-90
2022/08/26 16:34:07;;;;;;;;;;;;;;;13.79;100.00;99367.91;6242596;23;19914;-88
2022/08/26 16:36:33;;;;;;;;;;;;;;;13.84;100.00;99362.31;6245157;23;19998;-89
2022/08/26 16:38:59;;;;;;;;;;;;;;;13.80;100.00;99361.66;6245063;23;19946;-89
2022/08/26 16:41:25;;;;;;;;;;;;;;;13.73;100.00;99359.47;6241727;23;19916;-88
2022/08/26 16:43:51;;;;;;;;;;;;;;;13.73;100.00;99348.81;6244632;23;20011;-89
2022/08/26 16:46:17;;;;;;;;;;;;;;;13.85;100.00;99350.72;6244005;23;19911;-89
2022/08/26 16:48:42;;;;;;;;;;;;;;;13.75;100.00;99357.56;6242889;23;19911;-88
2022/08/26 16:51:12;;;;;;;;;;;;;;;13.74;100.00;99358.53;6243311;23;19930;-88
2022/08/26 16:53:38;;;;;;;;;;;;;;;13.95;100.00;99349.16;6243596;23;19907;-88
2022/08/26 16:56:03;;;;;;;;;;;;;;;13.89;100.00;99346.88;6241577;23;19912;-90
2022/08/26 16:58:29;;;;;;;;;;;;;;;13.89;100.00;99348.69;6243409;23;19908;-90
2022/08/26 17:00:55;;;;;;;;;;;;;;;14.04;100.00;99346.84;6221973;23;19926;-88
2022/08/26 17:03:21;;;;;;;;;;;;;;;14.07;100.00;99352.00;6121639;23;19992;-87
2022/08/26 17:05:46;;;;;;;;;;;;;;;14.00;100.00;99356.84;6119973;23;20530;-90
2022/08/26 17:08:11;;;;;;;;;;;;;;;14.19;100.00;99355.69;6119010;23;19959;-87
2022/08/26 17:10:50;;;;;;;;;;;;;;;14.25;100.00;99352.59;6117710;23;19917;-86
2022/08/26 17:13:15;;;;;;;;;;;;;;;14.19;100.00;99347.69;6121139;23;20303;-88
2022/08/26 17:15:52;;;;;;;;;;;;;;;14.23;100.00;99347.41;6121204;23;19917;-89
2022/08/26 17:18:18;;;;;;;;;;;;;;;14.31;100.00;99345.09;6119957;23;20367;-89
2022/08/26 17:20:43;;;;;;;;;;;;;;;14.27;100.00;99343.56;6119816;23;19917;-88
2022/08/26 17:23:09;;;;;;;;;;;;;;;14.34;100.00;99342.22;6119798;23;19920;-88
2022/08/26 17:25:34;;;;;;;;;;;;;;;14.40;100.00;99345.44;6119082;23;19917;-88
2022/08/26 17:27:59;;;;;;;;;;;;;;;14.24;100.00;99346.44;6119780;23;19935;-88
2022/08/26 17:30:25;;;;;;;;;;;;;;;14.35;100.00;99343.91;6119586;23;19971;-88
2022/08/26 17:32:51;;;;;;;;;;;;;;;14.43;100.00;99348.75;6119816;23;19913;-88
2022/08/26 17:35:32;;;;;;;;;;;;;;;14.31;100.00;99341.53;6119506;23;19917;-89
2022/08/26 17:37:58;;;;;;;;;;;;;;;14.35;100.00;99346.56;6120617;23;20050;-88
2022/08/26 17:40:25;;;;;;;;;;;;;;;14.51;100.00;99345.56;6118160;23;19913;-88
2022/08/26 17:42:51;;;;;;;;;;;;;;;14.35;100.00;99349.25;6121130;23;19917;-89
2022/08/26 17:45:17;;;;;;;;;;;;;;;14.38;100.00;99348.19;6120684;23;20340;-88
2022/08/26 17:47:43;;;;;;;;;;;;;;;14.62;100.00;99344.91;6120733;23;20317;-88
2022/08/26 17:50:21;;;;;;;;;;;;;;;14.47;100.00;99339.59;6119663;23;19960;-92
2022/08/26 17:52:47;;;;;;;;;;;;;;;14.47;100.00;99349.38;6120004;23;19999;-88
2022/08/26 17:55:13;;;;;;;;;;;;;;;14.56;100.00;99350.63;6120999;23;19948;-88
2022/08/26 17:57:41;;;;;;;;;;;;;;;14.45;100.00;99344.16;6118526;23;20233;-88
2022/08/26 18:00:14;;;;;;;;;;;;;;;14.35;100.00;99346.56;6119659;23;19928;-89
2022/08/26 18:02:43;;;;;;;;;;;;;;;14.63;100.00;99354.59;6120411;23;19912;-89
2022/08/26 18:05:10;;;;;;;;;;;;;;;14.55;100.00;99352.44;6120324;23;19913;-87
2022/08/26 18:07:36;;;;;;;;;;;;;;;14.48;100.00;99356.44;6121207;23;19917;-88
2022/08/26 18:10:09;;;;;;;;;;;;;;;14.73;100.00;99354.84;6121820;23;19968;-88
2022/08/26 18:12:35;;;;;;;;;;;;;;;14.61;100.00;99360.03;6118636;23;20384;-88
2022/08/26 18:15:00;;;;;;;;;;;;;;;14.54;100.00;99353.38;6120009;23;19943;-88
2022/08/26 18:17:29;;;;;;;;;;;;;;;14.78;100.00;99369.59;6120548;23;19992;-90
2022/08/26 18:19:54;;;;;;;;;;;;;;;14.77;100.00;99364.34;6120779;23;19925;-88
2022/08/26 18:22:21;;;;;;;;;;;;;;;14.63;100.00;99366.13;6121116;23;19917;-91
2022/08/26 18:24:48;;;;;;;;;;;;;;;15.32;100.00;99357.94;6122278;23;19924;-89
2022/08/26 18:27:14;;;;;;;;;;;;;;;14.80;100.00;99356.16;6121141;23;19909;-87
2022/08/26 18:29:39;;;;;;;;;;;;;;;14.46;100.00;99369.03;6120423;23;19917;-90
2022/08/26 18:32:08;;;;;;;;;;;;;;;14.50;100.00;99365.19;6121213;23;19917;-93
2022/08/26 18:34:34;;;;;;;;;;;;;;;14.48;100.00;99361.78;6121216;23;20000;-87
2022/08/26 18:37:00;;;;;;;;;;;;;;;14.34;100.00;99371.53;6122503;23;20352;-91
2022/08/26 18:39:26;;;;;;;;;;;;;;;14.40;100.00;99364.94;6121922;23;19965;-90
2022/08/26 18:41:52;;;;;;;;;;;;;;;14.43;100.00;99370.06;6119538;23;20011;-88
2022/08/26 18:44:18;;;;;;;;;;;;;;;14.25;100.00;99371.25;6122454;23;19920;-91
2022/08/26 18:46:48;;;;;;;;;;;;;;;14.35;100.00;99383.03;6122026;23;20245;-91
2022/08/26 18:49:15;;;;;;;;;;;;;;;14.40;100.00;99380.09;6122748;23;20280;-90
2022/08/26 18:51:49;;;;;;;;;;;;;;;14.29;100.00;99383.44;6122019;23;19924;-89
2022/08/26 18:54:15;;;;;;;;;;;;;;;14.44;100.00;99386.91;6122843;23;19952;-87
2022/08/26 18:56:41;;;;;;;;;;;;;;;14.60;100.00;99393.00;6120751;23;20321;-87
2022/08/26 18:59:07;;;;;;;;;;;;;;;14.28;100.00;99397.69;6121969;23;19966;-89
2022/08/26 19:01:33;;;;;;;;;;;;;;;14.25;100.00;99403.22;6120695;23;20372;-92
2022/08/26 19:04:00;;;;;;;;;;;;;;;14.22;100.00;99401.63;6122083;23;19913;-88
2022/08/26 19:06:27;;;;;;;;;;;;;;;14.12;100.00;99416.47;6120848;23;19921;-87
2022/08/26 19:11:43;;;;;;;;;;;;;;;14.22;100.00;99420.28;6114739;23;19921;-89
2022/08/26 19:14:14;;;;;;;;;;;;;;;14.11;100.00;99420.97;6120520;23;20341;-89
2022/08/26 19:16:41;;;;;;;;;;;;;;;14.03;100.00;99420.59;6121856;23;20053;-87
2022/08/26 19:19:07;;;;;;;;;;;;;;;14.20;100.00;99421.31;6121978;23;19914;-89
2022/08/26 19:21:34;;;;;;;;;;;;;;;14.03;100.00;99417.94;6120691;23;19916;-91
2022/08/26 19:24:01;;;;;;;;;;;;;;;14.00;100.00;99420.78;6122127;23;19913;-90
2022/08/26 19:26:27;;;;;;;;;;;;;;;14.12;100.00;99420.03;6121189;23;20245;-89
2022/08/26 19:31:18;;;;;;;;;;;;;;;14.04;100.00;99432.09;6305849;22;19926;-89
2022/08/26 19:33:44;;;;;;;;;;;;;;;16.12;100.00;99431.63;6306275;22;19925;-90
2022/08/26 19:36:17;;;;;;;;;;;;;;;14.47;100.00;99440.03;6275655;22;19942;-90
2022/08/26 19:38:45;;;;;;;;;;;;;;;14.17;100.00;99443.72;6274898;22;19915;-89
2022/08/26 19:41:12;;;;;;;;;;;;;;;14.23;100.00;99450.44;6295370;22;19910;-88
2022/08/26 19:43:37;;;;;;;;;;;;;;;14.03;100.00;99451.72;6275622;22;20405;-90
2022/08/26 19:46:15;;;;;;;;;;;;;;;14.08;100.00;99457.59;6275349;22;19980;-87
2022/08/26 19:48:44;;;;;;;;;;;;;;;14.14;100.00;99459.88;6302034;22;19911;-91
2022/08/26 19:51:14;;;;;;;;;;;;;;;13.96;100.00;99457.41;6274975;22;19931;-90
2022/08/26 19:53:40;;;;;;;;;;;;;;;14.04;100.00;99459.63;6303009;22;19990;-90
2022/08/26 19:56:15;;;;;;;;;;;;;;;14.09;100.00;99464.66;6279781;22;20234;-95
2022/08/26 19:58:54;;;;;;;;;;;;;;;13.96;100.00;99462.75;6276058;22;19946;-92
2022/08/26 20:01:22;;;;;;;;;;;;;;;14.24;100.00;99454.84;6307882;22;19911;-90
2022/08/26 20:03:47;;;;;;;;;;;;;;;14.22;100.00;99460.25;6307229;22;19956;-88
2022/08/26 20:06:16;;;;;;;;;;;;;;;13.99;100.00;99449.25;6307817;22;19915;-90
2022/08/26 20:08:51;;;;;;;;;;;;;;;14.11;100.00;99449.41;6276015;22;19965;-87
2022/08/26 20:11:16;;;;;;;;;;;;;;;14.12;100.00;99444.00;6306980;22;19980;-91
2022/08/26 20:13:42;;;;;;;;;;;;;;;13.96;100.00;99445.88;6275959;22;20307;-90
2022/08/26 20:16:15;;;;;;;;;;;;;;;14.15;100.00;99446.47;6274998;22;20269;-90
2022/08/26 20:21:26;;;;;;;;;;;;;;;14.10;100.00;99459.19;6306974;22;19919;-87
2022/08/26 20:24:02;;;;;;;;;;;;;;;14.13;100.00;99447.50;6277370;22;19911;-88
2022/08/26 20:26:30;;;;;;;;;;;;;;;14.13;100.00;99448.34;6305505;22;19988;-88
2022/08/26 20:29:05;;;;;;;;;;;;;;;13.98;100.00;99452.84;6306135;22;19911;-89
2022/08/26 20:31:31;;;;;;;;;;;;;;;14.00;100.00;99450.09;6273687;22;19919;-88
2022/08/26 20:37:07;;;;;;;;;;;;;;;14.03;100.00;99462.38;6267362;22;19918;-88
2022/08/26 20:39:32;;;;;;;;;;;;;;;13.85;100.00;99459.91;6279490;22;20320;-89
2022/08/26 20:42:01;;;;;;;;;;;;;;;14.11;100.00;99460.91;6305211;22;19911;-91
2022/08/26 20:44:26;;;;;;;;;;;;;;;13.98;100.00;99455.50;6307198;22;19917;-88
2022/08/26 20:46:52;;;;;;;;;;;;;;;13.90;100.00;99459.63;6306521;22;20247;-86
2022/08/26 20:49:17;;;;;;;;;;;;;;;14.11;100.00;99465.41;6305535;22;19922;-90
2022/08/26 20:51:43;;;;;;;;;;;;;;;13.93;100.00;99468.25;6306771;22;19918;-89
2022/08/26 20:54:09;;;;;;;;;;;;;;;13.98;100.00;99463.50;6279026;22;19953;-89
2022/08/26 20:56:38;;;;;;;;;;;;;;;14.11;100.00;99465.41;6272739;22;20399;-87
2022/08/26 20:59:10;;;;;;;;;;;;;;;13.97;100.00;99471.59;6279299;22;20215;-90
2022/08/26 21:01:37;;;;;;;;;;;;;;;14.17;100.00;99465.03;6307366;22;19998;-89
2022/08/26 21:04:07;;;;;;;;;;;;;;;14.11;100.00;99468.91;6276179;22;20311;-89
2022/08/26 21:06:32;;;;;;;;;;;;;;;13.97;100.00;99469.75;6300197;22;19915;-89
2022/08/26 21:08:58;;;;;;;;;;;;;;;14.21;100.00;99474.53;6307723;22;19911;-89
2022/08/26 21:11:47;;;;;;;;;;;;;;;14.09;100.00;99473.50;6306902;22;19915;-90
2022/08/26 21:14:24;;;;;;;;;;;;;;;13.95;100.00;99476.16;6274566;22;19907;-91
2022/08/26 21:16:49;;;;;;;;;;;;;;;14.20;100.00;99469.28;6277072;22;19911;-88
2022/08/26 21:19:17;;;;;;;;;;;;;;;14.09;100.00;99468.16;6306781;22;19907;-93
2022/08/26 21:21:47;;;;;;;;;;;;;;;13.90;100.00;99479.09;6275451;22;19911;-90
2022/08/26 21:24:13;;;;;;;;;;;;;;;14.13;100.00;99467.00;6306715;22;19930;-86
2022/08/26 21:26:47;;;;;;;;;;;;;;;14.03;100.00;99470.34;6306029;22;20212;-90
2022/08/26 21:29:13;;;;;;;;;;;;;;;13.86;100.00;99477.56;6305994;22;19994;-90
2022/08/26 21:31:38;;;;;;;;;;;;;;;14.10;100.00;99461.03;6306804;22;19946;-88
2022/08/26 21:34:03;;;;;;;;;;;;;;;14.00;100.00;99463.41;6274144;22;19919;-87
2022/08/26 21:36:29;;;;;;;;;;;;;;;13.88;100.00;99462.38;6301677;22;20288;-90
2022/08/26 21:38:55;;;;;;;;;;;;;;;14.10;100.00;99458.34;6306442;22;19915;-88
2022/08/26 21:41:27;;;;;;;;;;;;;;;14.05;100.00;99460.47;6281752;22;19910;-93
2022/08/26 21:43:58;;;;;;;;;;;;;;;13.90;100.00;99459.63;6279732;22;19920;-90
2022/08/26 21:46:24;;;;;;;;;;;;;;;14.01;100.00;99458.91;6278415;22;20027;-88
2022/08/26 21:48:50;;;;;;;;;;;;;;;14.09;100.00;99462.84;6305635;22;20311;-88
2022/08/26 21:51:17;;;;;;;;;;;;;;;13.94;100.00;99463.78;6308345;22;19995;-88
2022/08/26 21:53:42;;;;;;;;;;;;;;;13.97;100.00;99461.78;6277132;22;19918;-90
2022/08/26 22:08:02;;;;;;;;;;;;;;;14.06;100.00;99470.16;6308504;22;20338;-90
2022/08/26 22:10:57;;;;;;;;;;;;;;;14.06;100.00;99460.38;6280677;22;19956;-92
2022/08/26 22:24:43;;;;;;;;;;;;;;;;;;;;;
2022/08/26 22:27:15;;;;;;;;;;;;;;;13.89;100.00;99476.53;6307603;22;20009;-93
2022/08/26 22:29:40;;;;;;;;;;;;;;;13.97;100.00;99477.75;6282438;22;19929;-91
2022/08/26 22:32:17;;;;;;;;;;;;;;;14.08;100.00;99489.56;6280721;22;19997;-91
2022/08/26 22:34:42;;;;;;;;;;;;;;;13.92;100.00;99493.16;6308324;22;19911;-90
2022/08/26 22:37:10;;;;;;;;;;;;;;;13.86;100.00;99487.38;6309655;22;19986;-92
2022/08/26 22:40:15;;;;;;;;;;;;;;;14.11;100.00;99494.72;6277821;22;19921;-90
2022/08/26 22:42:43;;;;;;;;;;;;;;;14.04;100.00;99496.03;6274783;22;19911;-91
2022/08/26 22:45:10;;;;;;;;;;;;;;;13.91;100.00;99495.94;6308578;22;19939;-88
2022/08/26 22:47:35;;;;;;;;;;;;;;;13.96;100.00;99497.38;6280481;22;20318;-91
2022/08/26 22:50:08;;;;;;;;;;;;;;;14.07;100.00;99498.50;6280685;22;20002;-89
2022/08/26 22:52:34;;;;;;;;;;;;;;;13.93;100.00;99502.88;6308321;22;19911;-88
2022/08/26 22:55:09;;;;;;;;;;;;;;;13.89;100.00;99497.84;6281133;22;20230;-87
2022/08/26 22:57:35;;;;;;;;;;;;;;;14.09;100.00;99507.28;6279576;22;19911;-87
2022/08/26 23:00:00;;;;;;;;;;;;;;;13.98;100.00;99497.28;6281020;22;19922;-92
2022/08/26 23:02:25;;;;;;;;;;;;;;;13.87;100.00;99495.28;6308505;22;19986;-90
2022/08/26 23:04:51;;;;;;;;;;;;;;;14.12;100.00;99493.75;6281131;22;20318;-90
2022/08/26 23:07:16;;;;;;;;;;;;;;;13.97;100.00;99498.22;6280606;22;20342;-90
2022/08/26 23:09:44;;;;;;;;;;;;;;;13.86;100.00;99492.69;6280442;22;19911;-91
2022/08/26 23:12:09;;;;;;;;;;;;;;;14.13;100.00;99495.47;6279382;22;19915;-88
2022/08/26 23:14:36;;;;;;;;;;;;;;;14.03;100.00;99489.00;6281218;22;19913;-90
2022/08/26 23:17:01;;;;;;;;;;;;;;;13.90;100.00;99504.88;6280742;22;19911;-90
2022/08/26 23:19:56;;;;;;;;;;;;;;;14.15;100.00;99502.41;6280573;22;19960;-91
2022/08/26 23:22:21;;;;;;;;;;;;;;;14.08;100.00;99497.56;6306674;22;19957;-87
2022/08/26 23:24:46;;;;;;;;;;;;;;;13.92;100.00;99501.16;6179303;22;19917;-89
2022/08/26 23:27:12;;;;;;;;;;;;;;;14.17;100.00;99492.50;6121280;23;19988;-91
2022/08/26 23:30:01;;;;;;;;;;;;;;;14.06;100.00;99496.81;6250978;22;19952;-93
2022/08/26 23:32:29;;;;;;;;;;;;;;;13.93;100.00;99496.72;6225923;23;19982;-93
2022/08/26 23:34:58;;;;;;;;;;;;;;;14.23;100.00;99491.28;6250010;22;20329;-88
2022/08/26 23:37:26;;;;;;;;;;;;;;;14.11;100.00;99486.72;6120999;23;20283;-91
2022/08/26 23:39:52;;;;;;;;;;;;;;;13.94;100.00;99493.06;6121727;23;19921;-89
2022/08/26 23:42:21;;;;;;;;;;;;;;;14.24;100.00;99492.97;6120168;23;19913;-89
2022/08/26 23:44:46;;;;;;;;;;;;;;;14.11;100.00;99486.72;6249454;22;19912;-90
2022/08/26 23:47:12;;;;;;;;;;;;;;;13.94;100.00;99496.59;6121845;23;19944;-89
2022/08/26 23:49:37;;;;;;;;;;;;;;;14.21;100.00;99482.50;6122247;23;19966;-89
2022/08/26 23:56:04;;;;;;;;;;;;;;;;;;;;;
2022/08/26 23:58:23;;;;;;;;;;;;;;;13.96;100.00;99484.06;6116880;23;19913;-90
